sensor_id;sensor_type;location;lat;lon;timestamp;P1;durP1;ratioP1;P2;durP2;ratioP2
22929;SDS011;11630;42.660;23.292;2023-08-21T00:01:25;7.50;;;6.10;;
22929;SDS011;11630;42.660;23.292;2023-08-21T00:03:56;6.73;;;6.10;;
22929;SDS011;11630;42.660;23.292;2023-08-21T00:06:27;8.37;;;6.63;;
22929;SDS011;11630;42.660;23.292;2023-08-21T00:08:58;7.10;;;5.33;;
22929;SDS011;11630;42.660;23.292;2023-08-21T00:11:30;11.83;;;6.33;;
22929;SDS011;11630;42.660;23.292;2023-08-21T00:14:01;11.37;;;6.47;;
22929;SDS011;11630;42.660;23.292;2023-08-21T00:16:32;9.60;;;6.67;;
22929;SDS011;11630;42.660;23.292;2023-08-21T00:19:02;7.90;;;5.73;;
22929;SDS011;11630;42.660;23.292;2023-08-21T00:21:32;12.53;;;6.03;;
22929;SDS011;11630;42.660;23.292;2023-08-21T00:24:08;6.70;;;5.80;;
22929;SDS011;11630;42.660;23.292;2023-08-21T00:26:40;9.03;;;6.73;;
22929;SDS011;11630;42.660;23.292;2023-08-21T00:29:11;11.47;;;6.70;;
22929;SDS011;11630;42.660;23.292;2023-08-21T00:31:41;9.20;;;6.13;;
22929;SDS011;11630;42.660;23.292;2023-08-21T00:34:11;6.13;;;5.53;;
22929;SDS011;11630;42.660;23.292;2023-08-21T00:36:42;10.33;;;7.13;;
22929;SDS011;11630;42.660;23.292;2023-08-21T00:39:13;11.57;;;6.50;;
22929;SDS011;11630;42.660;23.292;2023-08-21T00:41:44;7.40;;;6.00;;
22929;SDS011;11630;42.660;23.292;2023-08-21T00:44:18;9.83;;;6.40;;
22929;SDS011;11630;42.660;23.292;2023-08-21T00:46:49;7.67;;;6.13;;
22929;SDS011;11630;42.660;23.292;2023-08-21T00:49:21;9.03;;;6.40;;
22929;SDS011;11630;42.660;23.292;2023-08-21T00:51:52;9.63;;;6.23;;
22929;SDS011;11630;42.660;23.292;2023-08-21T00:54:23;13.87;;;5.73;;
22929;SDS011;11630;42.660;23.292;2023-08-21T00:56:55;15.53;;;5.97;;
22929;SDS011;11630;42.660;23.292;2023-08-21T00:59:26;11.27;;;6.03;;
22929;SDS011;11630;42.660;23.292;2023-08-21T01:01:57;10.53;;;6.60;;
22929;SDS011;11630;42.660;23.292;2023-08-21T01:04:28;8.50;;;6.00;;
22929;SDS011;11630;42.660;23.292;2023-08-21T01:06:59;7.37;;;6.23;;
22929;SDS011;11630;42.660;23.292;2023-08-21T01:09:33;8.10;;;6.50;;
22929;SDS011;11630;42.660;23.292;2023-08-21T01:14:59;10.13;;;6.20;;
22929;SDS011;11630;42.660;23.292;2023-08-21T01:17:30;7.30;;;6.33;;
22929;SDS011;11630;42.660;23.292;2023-08-21T01:20:03;8.27;;;6.00;;
22929;SDS011;11630;42.660;23.292;2023-08-21T01:22:39;7.60;;;5.83;;
22929;SDS011;11630;42.660;23.292;2023-08-21T01:25:08;9.93;;;5.80;;
22929;SDS011;11630;42.660;23.292;2023-08-21T01:27:40;7.23;;;6.17;;
22929;SDS011;11630;42.660;23.292;2023-08-21T01:30:13;8.83;;;6.07;;
22929;SDS011;11630;42.660;23.292;2023-08-21T01:32:48;10.77;;;6.17;;
22929;SDS011;11630;42.660;23.292;2023-08-21T01:35:18;13.80;;;6.50;;
22929;SDS011;11630;42.660;23.292;2023-08-21T01:37:50;6.83;;;5.90;;
22929;SDS011;11630;42.660;23.292;2023-08-21T01:40:22;8.50;;;6.50;;
22929;SDS011;11630;42.660;23.292;2023-08-21T01:42:53;9.30;;;6.47;;
22929;SDS011;11630;42.660;23.292;2023-08-21T01:45:23;6.77;;;5.47;;
22929;SDS011;11630;42.660;23.292;2023-08-21T01:47:53;6.13;;;5.47;;
22929;SDS011;11630;42.660;23.292;2023-08-21T01:50:25;6.27;;;5.53;;
22929;SDS011;11630;42.660;23.292;2023-08-21T01:52:56;8.20;;;6.23;;
22929;SDS011;11630;42.660;23.292;2023-08-21T01:55:27;8.73;;;6.13;;
22929;SDS011;11630;42.660;23.292;2023-08-21T01:58:01;6.50;;;5.90;;
22929;SDS011;11630;42.660;23.292;2023-08-21T02:00:31;6.83;;;5.70;;
22929;SDS011;11630;42.660;23.292;2023-08-21T02:03:02;11.37;;;6.13;;
22929;SDS011;11630;42.660;23.292;2023-08-21T02:05:37;10.00;;;6.90;;
22929;SDS011;11630;42.660;23.292;2023-08-21T02:08:06;18.13;;;6.87;;
22929;SDS011;11630;42.660;23.292;2023-08-21T02:10:39;13.27;;;6.47;;
22929;SDS011;11630;42.660;23.292;2023-08-21T02:13:18;15.00;;;5.93;;
22929;SDS011;11630;42.660;23.292;2023-08-21T02:15:50;11.57;;;6.30;;
22929;SDS011;11630;42.660;23.292;2023-08-21T02:18:24;10.87;;;6.47;;
22929;SDS011;11630;42.660;23.292;2023-08-21T02:20:55;15.07;;;7.30;;
22929;SDS011;11630;42.660;23.292;2023-08-21T02:23:24;7.80;;;6.10;;
22929;SDS011;11630;42.660;23.292;2023-08-21T02:25:55;6.67;;;5.97;;
22929;SDS011;11630;42.660;23.292;2023-08-21T02:28:26;9.77;;;6.37;;
22929;SDS011;11630;42.660;23.292;2023-08-21T02:30:57;14.00;;;6.63;;
22929;SDS011;11630;42.660;23.292;2023-08-21T02:33:28;8.83;;;6.50;;
22929;SDS011;11630;42.660;23.292;2023-08-21T02:35:58;21.93;;;7.30;;
22929;SDS011;11630;42.660;23.292;2023-08-21T02:38:29;10.37;;;6.33;;
22929;SDS011;11630;42.660;23.292;2023-08-21T02:41:01;10.13;;;6.97;;
22929;SDS011;11630;42.660;23.292;2023-08-21T02:43:35;9.50;;;7.13;;
22929;SDS011;11630;42.660;23.292;2023-08-21T02:46:06;11.23;;;6.13;;
22929;SDS011;11630;42.660;23.292;2023-08-21T02:48:36;14.03;;;6.63;;
22929;SDS011;11630;42.660;23.292;2023-08-21T02:51:07;19.90;;;7.13;;
22929;SDS011;11630;42.660;23.292;2023-08-21T02:53:38;9.73;;;6.00;;
22929;SDS011;11630;42.660;23.292;2023-08-21T02:56:09;11.90;;;6.93;;
22929;SDS011;11630;42.660;23.292;2023-08-21T02:58:40;15.13;;;6.57;;
22929;SDS011;11630;42.660;23.292;2023-08-21T03:01:11;13.07;;;6.73;;
22929;SDS011;11630;42.660;23.292;2023-08-21T03:03:42;17.03;;;7.07;;
22929;SDS011;11630;42.660;23.292;2023-08-21T03:06:13;14.50;;;8.00;;
22929;SDS011;11630;42.660;23.292;2023-08-21T03:08:44;11.00;;;6.90;;
22929;SDS011;11630;42.660;23.292;2023-08-21T03:11:15;7.87;;;7.07;;
22929;SDS011;11630;42.660;23.292;2023-08-21T03:13:46;14.47;;;7.07;;
22929;SDS011;11630;42.660;23.292;2023-08-21T03:16:17;13.97;;;7.00;;
22929;SDS011;11630;42.660;23.292;2023-08-21T03:18:55;8.97;;;7.10;;
22929;SDS011;11630;42.660;23.292;2023-08-21T03:21:26;8.60;;;6.77;;
22929;SDS011;11630;42.660;23.292;2023-08-21T03:23:56;12.20;;;7.00;;
22929;SDS011;11630;42.660;23.292;2023-08-21T03:26:27;13.77;;;6.90;;
22929;SDS011;11630;42.660;23.292;2023-08-21T03:28:57;15.57;;;7.93;;
22929;SDS011;11630;42.660;23.292;2023-08-21T03:31:29;10.07;;;7.20;;
22929;SDS011;11630;42.660;23.292;2023-08-21T03:33:59;14.03;;;6.97;;
22929;SDS011;11630;42.660;23.292;2023-08-21T03:36:30;8.57;;;6.90;;
22929;SDS011;11630;42.660;23.292;2023-08-21T03:39:00;8.73;;;6.90;;
22929;SDS011;11630;42.660;23.292;2023-08-21T03:41:31;10.50;;;7.30;;
22929;SDS011;11630;42.660;23.292;2023-08-21T03:44:01;8.77;;;6.97;;
22929;SDS011;11630;42.660;23.292;2023-08-21T03:46:33;14.67;;;6.57;;
22929;SDS011;11630;42.660;23.292;2023-08-21T03:49:04;11.87;;;6.63;;
22929;SDS011;11630;42.660;23.292;2023-08-21T03:51:35;14.57;;;7.43;;
22929;SDS011;11630;42.660;23.292;2023-08-21T03:54:05;14.30;;;6.80;;
22929;SDS011;11630;42.660;23.292;2023-08-21T03:56:40;9.97;;;7.57;;
22929;SDS011;11630;42.660;23.292;2023-08-21T03:59:11;9.93;;;7.00;;
22929;SDS011;11630;42.660;23.292;2023-08-21T04:01:42;12.47;;;6.90;;
22929;SDS011;11630;42.660;23.292;2023-08-21T04:04:13;12.33;;;7.97;;
22929;SDS011;11630;42.660;23.292;2023-08-21T04:06:44;11.93;;;7.73;;
22929;SDS011;11630;42.660;23.292;2023-08-21T04:09:14;13.30;;;7.63;;
22929;SDS011;11630;42.660;23.292;2023-08-21T04:11:44;14.60;;;8.00;;
22929;SDS011;11630;42.660;23.292;2023-08-21T04:14:15;13.57;;;7.87;;
22929;SDS011;11630;42.660;23.292;2023-08-21T04:16:46;9.43;;;8.10;;
22929;SDS011;11630;42.660;23.292;2023-08-21T04:19:17;12.47;;;7.83;;
22929;SDS011;11630;42.660;23.292;2023-08-21T04:21:48;19.87;;;8.90;;
22929;SDS011;11630;42.660;23.292;2023-08-21T04:24:19;20.07;;;8.13;;
22929;SDS011;11630;42.660;23.292;2023-08-21T04:26:51;21.97;;;7.83;;
22929;SDS011;11630;42.660;23.292;2023-08-21T04:29:22;15.00;;;8.63;;
22929;SDS011;11630;42.660;23.292;2023-08-21T04:31:53;15.80;;;8.33;;
22929;SDS011;11630;42.660;23.292;2023-08-21T04:34:24;17.20;;;8.47;;
22929;SDS011;11630;42.660;23.292;2023-08-21T04:36:57;22.23;;;8.77;;
22929;SDS011;11630;42.660;23.292;2023-08-21T04:39:29;13.73;;;8.53;;
22929;SDS011;11630;42.660;23.292;2023-08-21T04:42:00;14.37;;;8.90;;
22929;SDS011;11630;42.660;23.292;2023-08-21T04:44:31;14.43;;;8.23;;
22929;SDS011;11630;42.660;23.292;2023-08-21T04:47:18;14.00;;;8.50;;
22929;SDS011;11630;42.660;23.292;2023-08-21T04:49:50;18.43;;;8.80;;
22929;SDS011;11630;42.660;23.292;2023-08-21T04:52:21;15.13;;;8.93;;
22929;SDS011;11630;42.660;23.292;2023-08-21T04:54:53;15.43;;;9.60;;
22929;SDS011;11630;42.660;23.292;2023-08-21T04:57:24;19.53;;;9.20;;
22929;SDS011;11630;42.660;23.292;2023-08-21T04:59:55;17.27;;;9.60;;
22929;SDS011;11630;42.660;23.292;2023-08-21T05:02:25;20.50;;;9.40;;
22929;SDS011;11630;42.660;23.292;2023-08-21T05:04:56;16.87;;;10.33;;
22929;SDS011;11630;42.660;23.292;2023-08-21T05:07:26;19.33;;;9.77;;
22929;SDS011;11630;42.660;23.292;2023-08-21T05:10:01;19.33;;;10.27;;
22929;SDS011;11630;42.660;23.292;2023-08-21T05:12:32;16.40;;;10.17;;
22929;SDS011;11630;42.660;23.292;2023-08-21T05:15:03;14.30;;;10.10;;
22929;SDS011;11630;42.660;23.292;2023-08-21T05:17:34;17.63;;;10.07;;
22929;SDS011;11630;42.660;23.292;2023-08-21T05:20:04;15.63;;;11.27;;
22929;SDS011;11630;42.660;23.292;2023-08-21T05:22:36;23.00;;;10.00;;
22929;SDS011;11630;42.660;23.292;2023-08-21T05:25:07;16.07;;;10.97;;
22929;SDS011;11630;42.660;23.292;2023-08-21T05:27:38;22.70;;;10.30;;
22929;SDS011;11630;42.660;23.292;2023-08-21T05:30:09;21.83;;;10.60;;
22929;SDS011;11630;42.660;23.292;2023-08-21T05:32:43;21.83;;;10.50;;
22929;SDS011;11630;42.660;23.292;2023-08-21T05:35:16;19.27;;;9.53;;
22929;SDS011;11630;42.660;23.292;2023-08-21T05:37:47;12.73;;;10.20;;
22929;SDS011;11630;42.660;23.292;2023-08-21T05:40:18;24.07;;;10.57;;
22929;SDS011;11630;42.660;23.292;2023-08-21T05:42:49;17.80;;;10.07;;
22929;SDS011;11630;42.660;23.292;2023-08-21T05:45:21;17.67;;;9.67;;
22929;SDS011;11630;42.660;23.292;2023-08-21T05:47:53;21.63;;;10.80;;
22929;SDS011;11630;42.660;23.292;2023-08-21T05:50:23;20.30;;;11.27;;
22929;SDS011;11630;42.660;23.292;2023-08-21T05:52:54;17.13;;;11.90;;
22929;SDS011;11630;42.660;23.292;2023-08-21T05:55:25;16.23;;;9.93;;
22929;SDS011;11630;42.660;23.292;2023-08-21T05:57:56;18.97;;;10.77;;
22929;SDS011;11630;42.660;23.292;2023-08-21T06:00:32;22.53;;;10.40;;
22929;SDS011;11630;42.660;23.292;2023-08-21T06:03:03;15.30;;;10.30;;
22929;SDS011;11630;42.660;23.292;2023-08-21T06:05:34;20.27;;;10.57;;
22929;SDS011;11630;42.660;23.292;2023-08-21T06:08:05;18.63;;;10.23;;
22929;SDS011;11630;42.660;23.292;2023-08-21T06:10:35;20.70;;;10.37;;
22929;SDS011;11630;42.660;23.292;2023-08-21T06:13:07;15.97;;;9.83;;
22929;SDS011;11630;42.660;23.292;2023-08-21T06:15:37;14.23;;;10.10;;
22929;SDS011;11630;42.660;23.292;2023-08-21T06:18:11;21.07;;;9.67;;
22929;SDS011;11630;42.660;23.292;2023-08-21T06:20:43;14.43;;;9.17;;
22929;SDS011;11630;42.660;23.292;2023-08-21T06:23:14;15.17;;;8.73;;
22929;SDS011;11630;42.660;23.292;2023-08-21T06:25:45;14.37;;;8.60;;
22929;SDS011;11630;42.660;23.292;2023-08-21T06:28:18;16.00;;;8.57;;
22929;SDS011;11630;42.660;23.292;2023-08-21T06:30:55;19.53;;;9.20;;
22929;SDS011;11630;42.660;23.292;2023-08-21T06:33:24;18.50;;;8.77;;
22929;SDS011;11630;42.660;23.292;2023-08-21T06:35:55;11.70;;;6.80;;
22929;SDS011;11630;42.660;23.292;2023-08-21T06:38:26;19.40;;;8.00;;
22929;SDS011;11630;42.660;23.292;2023-08-21T06:40:57;13.17;;;7.20;;
22929;SDS011;11630;42.660;23.292;2023-08-21T06:43:27;14.90;;;8.30;;
22929;SDS011;11630;42.660;23.292;2023-08-21T06:45:58;9.30;;;7.23;;
22929;SDS011;11630;42.660;23.292;2023-08-21T06:48:30;14.13;;;6.63;;
22929;SDS011;11630;42.660;23.292;2023-08-21T06:51:01;13.20;;;6.83;;
22929;SDS011;11630;42.660;23.292;2023-08-21T06:53:32;14.57;;;6.73;;
22929;SDS011;11630;42.660;23.292;2023-08-21T06:56:02;11.60;;;6.87;;
22929;SDS011;11630;42.660;23.292;2023-08-21T06:58:33;16.97;;;6.80;;
22929;SDS011;11630;42.660;23.292;2023-08-21T07:01:04;11.18;;;6.30;;
22929;SDS011;11630;42.660;23.292;2023-08-21T07:03:36;8.45;;;5.92;;
22929;SDS011;11630;42.660;23.292;2023-08-21T07:06:06;14.13;;;6.90;;
22929;SDS011;11630;42.660;23.292;2023-08-21T07:08:36;12.75;;;6.45;;
22929;SDS011;11630;42.660;23.292;2023-08-21T07:11:08;14.63;;;6.20;;
22929;SDS011;11630;42.660;23.292;2023-08-21T07:13:39;22.47;;;7.17;;
22929;SDS011;11630;42.660;23.292;2023-08-21T07:16:10;15.83;;;7.70;;
22929;SDS011;11630;42.660;23.292;2023-08-21T07:18:40;12.07;;;7.10;;
22929;SDS011;11630;42.660;23.292;2023-08-21T07:21:11;13.85;;;6.83;;
22929;SDS011;11630;42.660;23.292;2023-08-21T07:23:42;9.03;;;7.25;;
22929;SDS011;11630;42.660;23.292;2023-08-21T07:26:13;10.72;;;6.40;;
22929;SDS011;11630;42.660;23.292;2023-08-21T07:28:43;14.15;;;6.40;;
22929;SDS011;11630;42.660;23.292;2023-08-21T07:31:14;10.20;;;6.35;;
22929;SDS011;11630;42.660;23.292;2023-08-21T07:33:48;14.63;;;6.90;;
22929;SDS011;11630;42.660;23.292;2023-08-21T07:36:20;14.95;;;6.60;;
22929;SDS011;11630;42.660;23.292;2023-08-21T07:38:52;10.85;;;6.53;;
22929;SDS011;11630;42.660;23.292;2023-08-21T07:41:22;11.33;;;6.28;;
22929;SDS011;11630;42.660;23.292;2023-08-21T07:43:52;9.33;;;6.58;;
22929;SDS011;11630;42.660;23.292;2023-08-21T07:46:23;11.95;;;6.85;;
22929;SDS011;11630;42.660;23.292;2023-08-21T07:48:55;8.15;;;7.10;;
22929;SDS011;11630;42.660;23.292;2023-08-21T07:51:29;13.20;;;6.78;;
22929;SDS011;11630;42.660;23.292;2023-08-21T07:54:00;9.38;;;5.95;;
22929;SDS011;11630;42.660;23.292;2023-08-21T07:56:30;9.78;;;6.17;;
22929;SDS011;11630;42.660;23.292;2023-08-21T07:59:02;6.90;;;6.17;;
22929;SDS011;11630;42.660;23.292;2023-08-21T08:01:37;7.00;;;5.92;;
22929;SDS011;11630;42.660;23.292;2023-08-21T08:04:07;9.50;;;6.80;;
22929;SDS011;11630;42.660;23.292;2023-08-21T08:06:38;16.37;;;5.58;;
22929;SDS011;11630;42.660;23.292;2023-08-21T08:09:08;7.65;;;6.12;;
22929;SDS011;11630;42.660;23.292;2023-08-21T08:11:39;9.40;;;6.03;;
22929;SDS011;11630;42.660;23.292;2023-08-21T08:14:10;13.25;;;6.37;;
22929;SDS011;11630;42.660;23.292;2023-08-21T08:16:41;6.87;;;5.47;;
22929;SDS011;11630;42.660;23.292;2023-08-21T08:19:11;10.80;;;6.65;;
22929;SDS011;11630;42.660;23.292;2023-08-21T08:21:41;13.35;;;5.60;;
22929;SDS011;11630;42.660;23.292;2023-08-21T08:24:11;8.85;;;5.78;;
22929;SDS011;11630;42.660;23.292;2023-08-21T08:26:42;12.93;;;5.90;;
22929;SDS011;11630;42.660;23.292;2023-08-21T08:29:13;11.68;;;6.03;;
22929;SDS011;11630;42.660;23.292;2023-08-21T08:31:44;5.55;;;5.05;;
22929;SDS011;11630;42.660;23.292;2023-08-21T08:34:15;11.93;;;5.75;;
22929;SDS011;11630;42.660;23.292;2023-08-21T08:36:46;6.97;;;5.78;;
22929;SDS011;11630;42.660;23.292;2023-08-21T08:39:17;8.58;;;5.20;;
22929;SDS011;11630;42.660;23.292;2023-08-21T08:41:51;11.05;;;6.12;;
22929;SDS011;11630;42.660;23.292;2023-08-21T08:44:26;8.85;;;5.50;;
22929;SDS011;11630;42.660;23.292;2023-08-21T08:46:58;12.30;;;5.53;;
22929;SDS011;11630;42.660;23.292;2023-08-21T08:49:29;19.45;;;5.85;;
22929;SDS011;11630;42.660;23.292;2023-08-21T08:52:01;9.40;;;5.20;;
22929;SDS011;11630;42.660;23.292;2023-08-21T08:54:32;5.95;;;5.40;;
22929;SDS011;11630;42.660;23.292;2023-08-21T08:57:01;5.83;;;5.22;;
22929;SDS011;11630;42.660;23.292;2023-08-21T08:59:32;8.25;;;5.55;;
22929;SDS011;11630;42.660;23.292;2023-08-21T09:02:04;7.45;;;5.17;;
22929;SDS011;11630;42.660;23.292;2023-08-21T09:04:34;8.13;;;5.15;;
22929;SDS011;11630;42.660;23.292;2023-08-21T09:07:09;10.85;;;5.22;;
22929;SDS011;11630;42.660;23.292;2023-08-21T09:09:41;14.47;;;6.58;;
22929;SDS011;11630;42.660;23.292;2023-08-21T09:12:16;8.43;;;5.28;;
22929;SDS011;11630;42.660;23.292;2023-08-21T09:14:47;5.40;;;4.90;;
22929;SDS011;11630;42.660;23.292;2023-08-21T09:17:21;9.90;;;5.53;;
22929;SDS011;11630;42.660;23.292;2023-08-21T09:19:52;8.23;;;5.10;;
22929;SDS011;11630;42.660;23.292;2023-08-21T09:22:23;6.65;;;5.00;;
22929;SDS011;11630;42.660;23.292;2023-08-21T09:27:36;8.98;;;4.90;;
22929;SDS011;11630;42.660;23.292;2023-08-21T09:30:09;10.82;;;4.83;;
22929;SDS011;11630;42.660;23.292;2023-08-21T09:32:58;37.00;;;7.20;;
22929;SDS011;11630;42.660;23.292;2023-08-21T09:35:32;10.08;;;4.53;;
22929;SDS011;11630;42.660;23.292;2023-08-21T09:38:05;9.78;;;4.55;;
22929;SDS011;11630;42.660;23.292;2023-08-21T09:40:39;12.75;;;6.00;;
22929;SDS011;11630;42.660;23.292;2023-08-21T09:43:11;6.80;;;5.22;;
22929;SDS011;11630;42.660;23.292;2023-08-21T09:45:47;7.75;;;4.75;;
22929;SDS011;11630;42.660;23.292;2023-08-21T09:48:19;7.55;;;4.70;;
22929;SDS011;11630;42.660;23.292;2023-08-21T09:50:56;11.45;;;4.70;;
22929;SDS011;11630;42.660;23.292;2023-08-21T09:53:27;6.72;;;4.85;;
22929;SDS011;11630;42.660;23.292;2023-08-21T09:55:58;9.28;;;5.25;;
22929;SDS011;11630;42.660;23.292;2023-08-21T09:58:30;8.70;;;5.05;;
22929;SDS011;11630;42.660;23.292;2023-08-21T10:01:00;10.78;;;5.62;;
22929;SDS011;11630;42.660;23.292;2023-08-21T10:03:39;11.25;;;5.47;;
22929;SDS011;11630;42.660;23.292;2023-08-21T10:06:12;9.45;;;5.67;;
22929;SDS011;11630;42.660;23.292;2023-08-21T10:08:44;11.28;;;4.72;;
22929;SDS011;11630;42.660;23.292;2023-08-21T10:11:15;9.30;;;5.33;;
22929;SDS011;11630;42.660;23.292;2023-08-21T10:13:49;9.08;;;5.12;;
22929;SDS011;11630;42.660;23.292;2023-08-21T10:16:19;14.78;;;5.00;;
22929;SDS011;11630;42.660;23.292;2023-08-21T10:18:50;7.65;;;5.03;;
22929;SDS011;11630;42.660;23.292;2023-08-21T10:21:22;9.35;;;4.87;;
22929;SDS011;11630;42.660;23.292;2023-08-21T10:23:54;12.65;;;4.87;;
22929;SDS011;11630;42.660;23.292;2023-08-21T10:26:24;5.87;;;4.40;;
22929;SDS011;11630;42.660;23.292;2023-08-21T10:31:32;7.92;;;4.10;;
22929;SDS011;11630;42.660;23.292;2023-08-21T10:34:07;7.35;;;5.00;;
22929;SDS011;11630;42.660;23.292;2023-08-21T10:39:17;5.55;;;4.50;;
22929;SDS011;11630;42.660;23.292;2023-08-21T10:41:54;4.75;;;3.75;;
22929;SDS011;11630;42.660;23.292;2023-08-21T10:44:35;5.22;;;4.28;;
22929;SDS011;11630;42.660;23.292;2023-08-21T10:47:13;5.17;;;4.17;;
22929;SDS011;11630;42.660;23.292;2023-08-21T10:49:52;6.95;;;4.47;;
22929;SDS011;11630;42.660;23.292;2023-08-21T10:52:24;7.50;;;4.45;;
22929;SDS011;11630;42.660;23.292;2023-08-21T10:55:01;7.72;;;4.45;;
22929;SDS011;11630;42.660;23.292;2023-08-21T10:57:29;5.67;;;4.70;;
22929;SDS011;11630;42.660;23.292;2023-08-21T11:00:03;7.40;;;5.20;;
22929;SDS011;11630;42.660;23.292;2023-08-21T11:02:38;7.30;;;5.05;;
22929;SDS011;11630;42.660;23.292;2023-08-21T11:05:12;9.38;;;4.60;;
22929;SDS011;11630;42.660;23.292;2023-08-21T11:10:15;6.22;;;4.20;;
22929;SDS011;11630;42.660;23.292;2023-08-21T11:12:53;7.35;;;3.67;;
22929;SDS011;11630;42.660;23.292;2023-08-21T11:15:27;4.97;;;4.47;;
22929;SDS011;11630;42.660;23.292;2023-08-21T11:17:59;4.58;;;4.10;;
22929;SDS011;11630;42.660;23.292;2023-08-21T11:20:31;30.70;;;6.00;;
22929;SDS011;11630;42.660;23.292;2023-08-21T11:23:06;8.25;;;4.67;;
22929;SDS011;11630;42.660;23.292;2023-08-21T11:25:40;8.50;;;4.67;;
22929;SDS011;11630;42.660;23.292;2023-08-21T11:28:10;8.85;;;4.67;;
22929;SDS011;11630;42.660;23.292;2023-08-21T11:30:42;7.55;;;4.15;;
22929;SDS011;11630;42.660;23.292;2023-08-21T11:33:13;6.10;;;4.17;;
22929;SDS011;11630;42.660;23.292;2023-08-21T11:35:44;7.05;;;4.40;;
22929;SDS011;11630;42.660;23.292;2023-08-21T11:38:16;6.33;;;4.47;;
22929;SDS011;11630;42.660;23.292;2023-08-21T11:40:54;11.70;;;4.28;;
22929;SDS011;11630;42.660;23.292;2023-08-21T11:43:36;5.47;;;4.28;;
22929;SDS011;11630;42.660;23.292;2023-08-21T11:46:10;11.73;;;4.92;;
22929;SDS011;11630;42.660;23.292;2023-08-21T11:48:41;5.30;;;4.20;;
22929;SDS011;11630;42.660;23.292;2023-08-21T11:51:13;4.58;;;4.17;;
22929;SDS011;11630;42.660;23.292;2023-08-21T11:53:44;5.58;;;4.30;;
22929;SDS011;11630;42.660;23.292;2023-08-21T11:56:16;8.80;;;4.30;;
22929;SDS011;11630;42.660;23.292;2023-08-21T11:58:48;6.15;;;4.20;;
22929;SDS011;11630;42.660;23.292;2023-08-21T12:01:19;11.80;;;4.90;;
22929;SDS011;11630;42.660;23.292;2023-08-21T12:03:49;9.75;;;5.20;;
22929;SDS011;11630;42.660;23.292;2023-08-21T12:06:23;12.10;;;4.37;;
22929;SDS011;11630;42.660;23.292;2023-08-21T12:08:54;9.30;;;3.80;;
22929;SDS011;11630;42.660;23.292;2023-08-21T12:11:25;6.58;;;3.80;;
22929;SDS011;11630;42.660;23.292;2023-08-21T12:13:56;7.03;;;4.53;;
22929;SDS011;11630;42.660;23.292;2023-08-21T12:16:27;9.83;;;4.33;;
22929;SDS011;11630;42.660;23.292;2023-08-21T12:18:58;6.53;;;4.35;;
22929;SDS011;11630;42.660;23.292;2023-08-21T12:21:29;8.48;;;4.72;;
22929;SDS011;11630;42.660;23.292;2023-08-21T12:24:00;6.20;;;3.92;;
22929;SDS011;11630;42.660;23.292;2023-08-21T12:26:31;7.40;;;4.30;;
22929;SDS011;11630;42.660;23.292;2023-08-21T12:29:04;5.22;;;4.58;;
22929;SDS011;11630;42.660;23.292;2023-08-21T12:31:34;6.97;;;3.87;;
22929;SDS011;11630;42.660;23.292;2023-08-21T12:34:05;11.30;;;4.33;;
22929;SDS011;11630;42.660;23.292;2023-08-21T12:36:37;7.47;;;4.58;;
22929;SDS011;11630;42.660;23.292;2023-08-21T12:39:08;9.20;;;4.30;;
22929;SDS011;11630;42.660;23.292;2023-08-21T12:41:39;7.17;;;4.35;;
22929;SDS011;11630;42.660;23.292;2023-08-21T12:44:11;14.90;;;4.40;;
22929;SDS011;11630;42.660;23.292;2023-08-21T12:46:42;4.28;;;3.87;;
22929;SDS011;11630;42.660;23.292;2023-08-21T12:49:14;6.42;;;4.22;;
22929;SDS011;11630;42.660;23.292;2023-08-21T12:51:45;6.20;;;4.37;;
22929;SDS011;11630;42.660;23.292;2023-08-21T12:54:16;7.80;;;4.03;;
22929;SDS011;11630;42.660;23.292;2023-08-21T12:56:46;8.03;;;4.17;;
22929;SDS011;11630;42.660;23.292;2023-08-21T12:59:18;6.25;;;4.20;;
22929;SDS011;11630;42.660;23.292;2023-08-21T13:01:49;4.90;;;4.40;;
22929;SDS011;11630;42.660;23.292;2023-08-21T13:04:20;9.10;;;4.05;;
22929;SDS011;11630;42.660;23.292;2023-08-21T13:06:51;5.00;;;3.87;;
22929;SDS011;11630;42.660;23.292;2023-08-21T13:09:22;6.60;;;4.05;;
22929;SDS011;11630;42.660;23.292;2023-08-21T13:11:53;6.80;;;4.45;;
22929;SDS011;11630;42.660;23.292;2023-08-21T13:14:24;7.05;;;3.98;;
22929;SDS011;11630;42.660;23.292;2023-08-21T13:16:55;7.90;;;4.75;;
22929;SDS011;11630;42.660;23.292;2023-08-21T13:19:29;6.28;;;4.40;;
22929;SDS011;11630;42.660;23.292;2023-08-21T13:22:00;4.87;;;3.75;;
22929;SDS011;11630;42.660;23.292;2023-08-21T13:24:30;4.75;;;4.35;;
22929;SDS011;11630;42.660;23.292;2023-08-21T13:27:02;6.95;;;4.35;;
22929;SDS011;11630;42.660;23.292;2023-08-21T13:29:33;6.33;;;4.15;;
22929;SDS011;11630;42.660;23.292;2023-08-21T13:32:03;5.20;;;3.50;;
22929;SDS011;11630;42.660;23.292;2023-08-21T13:34:34;5.42;;;4.92;;
22929;SDS011;11630;42.660;23.292;2023-08-21T13:37:05;7.58;;;3.87;;
22929;SDS011;11630;42.660;23.292;2023-08-21T13:39:37;7.12;;;4.22;;
22929;SDS011;11630;42.660;23.292;2023-08-21T13:42:08;8.55;;;4.35;;
22929;SDS011;11630;42.660;23.292;2023-08-21T13:44:44;8.25;;;4.50;;
22929;SDS011;11630;42.660;23.292;2023-08-21T13:47:15;5.15;;;4.20;;
22929;SDS011;11630;42.660;23.292;2023-08-21T13:49:46;7.47;;;4.40;;
22929;SDS011;11630;42.660;23.292;2023-08-21T13:52:16;10.98;;;4.58;;
22929;SDS011;11630;42.660;23.292;2023-08-21T13:54:47;5.80;;;4.25;;
22929;SDS011;11630;42.660;23.292;2023-08-21T13:57:17;8.88;;;3.95;;
22929;SDS011;11630;42.660;23.292;2023-08-21T13:59:48;7.42;;;4.28;;
22929;SDS011;11630;42.660;23.292;2023-08-21T14:02:18;6.87;;;3.85;;
22929;SDS011;11630;42.660;23.292;2023-08-21T14:04:49;4.55;;;4.12;;
22929;SDS011;11630;42.660;23.292;2023-08-21T14:07:20;7.22;;;4.37;;
22929;SDS011;11630;42.660;23.292;2023-08-21T14:09:53;8.30;;;4.03;;
22929;SDS011;11630;42.660;23.292;2023-08-21T14:12:23;6.37;;;4.55;;
22929;SDS011;11630;42.660;23.292;2023-08-21T14:14:53;5.75;;;3.95;;
22929;SDS011;11630;42.660;23.292;2023-08-21T14:17:25;8.83;;;4.45;;
22929;SDS011;11630;42.660;23.292;2023-08-21T14:19:56;5.97;;;3.85;;
22929;SDS011;11630;42.660;23.292;2023-08-21T14:22:27;6.03;;;3.90;;
22929;SDS011;11630;42.660;23.292;2023-08-21T14:24:58;8.15;;;4.12;;
22929;SDS011;11630;42.660;23.292;2023-08-21T14:27:29;11.57;;;4.28;;
22929;SDS011;11630;42.660;23.292;2023-08-21T14:30:00;5.45;;;4.33;;
22929;SDS011;11630;42.660;23.292;2023-08-21T14:32:32;7.62;;;4.40;;
22929;SDS011;11630;42.660;23.292;2023-08-21T14:35:03;16.40;;;5.35;;
22929;SDS011;11630;42.660;23.292;2023-08-21T14:37:35;5.03;;;3.85;;
22929;SDS011;11630;42.660;23.292;2023-08-21T14:40:07;6.10;;;4.12;;
22929;SDS011;11630;42.660;23.292;2023-08-21T14:42:39;8.03;;;4.28;;
22929;SDS011;11630;42.660;23.292;2023-08-21T14:45:10;11.75;;;4.87;;
22929;SDS011;11630;42.660;23.292;2023-08-21T14:47:41;5.30;;;4.45;;
22929;SDS011;11630;42.660;23.292;2023-08-21T14:50:12;5.75;;;4.42;;
22929;SDS011;11630;42.660;23.292;2023-08-21T14:52:43;14.83;;;4.92;;
22929;SDS011;11630;42.660;23.292;2023-08-21T14:55:13;7.05;;;4.15;;
22929;SDS011;11630;42.660;23.292;2023-08-21T14:57:43;5.67;;;5.15;;
22929;SDS011;11630;42.660;23.292;2023-08-21T15:00:18;7.00;;;4.40;;
22929;SDS011;11630;42.660;23.292;2023-08-21T15:02:48;4.87;;;4.47;;
22929;SDS011;11630;42.660;23.292;2023-08-21T15:05:19;7.78;;;5.05;;
22929;SDS011;11630;42.660;23.292;2023-08-21T15:07:50;13.43;;;5.12;;